Time;durP1;ratioP1;P1;durP2;ratioP2;P2;SDS_P1;SDS_P2;PMS_P1;PMS_P2;Temp;Humidity;BMP_temperature;BMP_pressure;BME280_temperature;BME280_humidity;BME280_pressure;Samples;Min_cycle;Max_cycle;Signal;HPM_P1;HPM_P2
2022/08/17 00:01:26;;;;;;;;;16.00;15.00;;;;;;;;4977593;28;45478;-68
2022/08/17 00:03:52;;;;;;;;;16.67;16.67;;;;;;;;4983222;28;45467;-65
2022/08/17 00:06:22;;;;;;;;;17.00;16.33;;;;;;;;4995042;28;45540;-65
2022/08/17 00:08:52;;;;;;;;;17.33;16.33;;;;;;;;4996315;28;45518;-68
2022/08/17 00:11:19;;;;;;;;;15.00;14.00;;;;;;;;4996377;28;45386;-67
2022/08/17 00:13:47;;;;;;;;;17.67;17.67;;;;;;;;4996191;28;45376;-65
2022/08/17 00:16:17;;;;;;;;;17.33;17.33;;;;;;;;4996392;28;45595;-67
2022/08/17 00:18:44;;;;;;;;;20.00;18.00;;;;;;;;4995483;28;45926;-67
2022/08/17 00:21:10;;;;;;;;;15.33;15.33;;;;;;;;4996324;28;45554;-65
2022/08/17 00:23:35;;;;;;;;;16.00;16.00;;;;;;;;4996268;28;45434;-65
2022/08/17 00:26:00;;;;;;;;;16.00;14.67;;;;;;;;4996454;28;45415;-66
2022/08/17 00:28:26;;;;;;;;;16.67;16.67;;;;;;;;4996088;28;45431;-67
2022/08/17 00:30:52;;;;;;;;;17.67;17.00;;;;;;;;4996032;28;45468;-65
2022/08/17 00:33:18;;;;;;;;;16.00;16.00;;;;;;;;4977651;28;45333;-68
2022/08/17 00:35:44;;;;;;;;;16.33;16.33;;;;;;;;4976386;28;45502;-65
2022/08/17 00:38:11;;;;;;;;;17.67;16.33;;;;;;;;4975127;28;46425;-65
2022/08/17 00:40:56;;;;;;;;;9.67;9.67;;;;;;;;4976484;28;45556;-68
2022/08/17 00:43:27;;;;;;;;;15.67;15.67;;;;;;;;4976300;28;45454;-65
2022/08/17 00:45:53;;;;;;;;;19.33;18.33;;;;;;;;4976441;28;45515;-65
2022/08/17 00:48:18;;;;;;;;;13.67;13.67;;;;;;;;4975817;28;46167;-65
2022/08/17 00:50:51;;;;;;;;;17.33;15.00;;;;;;;;4976132;28;45437;-67
2022/08/17 00:53:17;;;;;;;;;16.33;16.33;;;;;;;;4958743;28;45376;-67
2022/08/17 00:55:42;;;;;;;;;18.67;16.67;;;;;;;;4976178;28;45583;-65
2022/08/17 00:58:09;;;;;;;;;16.67;16.67;;;;;;;;4975791;28;46323;-67
2022/08/17 01:00:39;;;;;;;;;15.00;15.00;;;;;;;;4993376;28;45388;-67
2022/08/17 01:03:10;;;;;;;;;17.33;17.33;;;;;;;;4978497;28;45506;-69
2022/08/17 01:05:37;;;;;;;;;17.00;15.67;;;;;;;;4976035;28;45517;-66
2022/08/17 01:08:04;;;;;;;;;16.00;15.33;;;;;;;;4975897;28;45569;-65
2022/08/17 01:10:33;;;;;;;;;17.67;15.33;;;;;;;;4976009;28;45437;-67
2022/08/17 01:12:59;;;;;;;;;19.00;19.00;;;;;;;;4991117;28;45434;-69
2022/08/17 01:15:24;;;;;;;;;15.67;15.67;;;;;;;;4995661;28;45475;-67
2022/08/17 01:17:50;;;;;;;;;15.33;15.00;;;;;;;;4995601;28;46144;-67
2022/08/17 01:20:15;;;;;;;;;16.33;16.33;;;;;;;;4995388;28;45384;-67
2022/08/17 01:22:40;;;;;;;;;14.67;14.67;;;;;;;;4995699;28;45468;-65
2022/08/17 01:25:07;;;;;;;;;14.67;14.33;;;;;;;;4979730;28;45389;-69
2022/08/17 01:27:33;;;;;;;;;21.33;17.00;;;;;;;;4975645;28;45421;-66
2022/08/17 01:30:00;;;;;;;;;18.00;17.00;;;;;;;;4975681;28;45460;-67
2022/08/17 01:32:27;;;;;;;;;15.67;14.33;;;;;;;;4985132;28;45486;-65
2022/08/17 01:34:52;;;;;;;;;13.33;13.33;;;;;;;;4995087;28;45531;-67
2022/08/17 01:37:19;;;;;;;;;20.00;17.00;;;;;;;;4979185;28;46008;-65
2022/08/17 01:39:47;;;;;;;;;20.00;19.00;;;;;;;;4975581;28;45338;-66
2022/08/17 01:42:31;;;;;;;;;19.00;17.00;;;;;;;;4975594;28;45471;-65
2022/08/17 01:44:59;;;;;;;;;17.67;16.67;;;;;;;;4975696;28;45734;-65
2022/08/17 01:47:24;;;;;;;;;21.33;21.33;;;;;;;;4972997;28;46036;-66
2022/08/17 01:49:49;;;;;;;;;19.00;18.33;;;;;;;;4997111;28;45410;-67
2022/08/17 01:52:15;;;;;;;;;18.67;18.33;;;;;;;;4998707;28;45432;-66
2022/08/17 01:54:42;;;;;;;;;17.00;16.33;;;;;;;;4998616;28;45522;-66
2022/08/17 01:57:07;;;;;;;;;19.67;17.67;;;;;;;;4993305;28;46438;-66
2022/08/17 01:59:32;;;;;;;;;18.33;18.33;;;;;;;;4978521;28;45317;-65
2022/08/17 02:01:58;;;;;;;;;17.67;17.67;;;;;;;;4981506;28;45443;-68
2022/08/17 02:04:23;;;;;;;;;18.33;17.67;;;;;;;;4988850;28;45433;-68
2022/08/17 02:06:48;;;;;;;;;18.67;17.33;;;;;;;;4960823;28;45520;-67
2022/08/17 02:09:14;;;;;;;;;17.33;17.33;;;;;;;;4978776;28;45349;-66
2022/08/17 02:11:39;;;;;;;;;19.00;17.00;;;;;;;;4978745;28;45365;-65
2022/08/17 02:14:08;;;;;;;;;17.33;17.33;;;;;;;;4975715;28;45605;-67
2022/08/17 02:16:35;;;;;;;;;16.00;15.67;;;;;;;;4996930;28;46065;-68
2022/08/17 02:19:01;;;;;;;;;16.67;16.67;;;;;;;;4997542;28;45524;-64
2022/08/17 02:21:27;;;;;;;;;16.00;16.00;;;;;;;;4979514;28;45440;-65
2022/08/17 02:23:54;;;;;;;;;18.00;16.67;;;;;;;;4997462;28;45698;-66
2022/08/17 02:26:19;;;;;;;;;16.00;15.33;;;;;;;;4983254;28;45503;-67
2022/08/17 02:28:45;;;;;;;;;19.67;17.67;;;;;;;;4978128;28;45465;-66
2022/08/17 02:31:11;;;;;;;;;18.33;16.67;;;;;;;;4978096;28;45462;-68
2022/08/17 02:33:37;;;;;;;;;18.67;17.67;;;;;;;;4978724;28;45540;-67
2022/08/17 02:36:03;;;;;;;;;19.00;19.00;;;;;;;;4978716;28;45514;-67
2022/08/17 02:38:30;;;;;;;;;18.00;18.00;;;;;;;;4995834;28;45492;-66
2022/08/17 02:40:55;;;;;;;;;16.33;15.33;;;;;;;;4998583;28;45359;-65
2022/08/17 02:43:21;;;;;;;;;20.00;20.00;;;;;;;;4998533;28;45453;-68
2022/08/17 02:45:46;;;;;;;;;15.33;15.33;;;;;;;;4998145;28;46313;-65
2022/08/17 02:48:11;;;;;;;;;15.67;15.67;;;;;;;;4996798;28;45492;-66
2022/08/17 02:50:36;;;;;;;;;13.00;13.00;;;;;;;;4983496;28;45453;-67
2022/08/17 02:53:02;;;;;;;;;18.00;16.67;;;;;;;;4998384;28;45447;-69
2022/08/17 02:55:29;;;;;;;;;18.00;18.00;;;;;;;;4997963;28;46309;-67
2022/08/17 02:57:55;;;;;;;;;18.00;17.00;;;;;;;;4998070;28;45376;-69
2022/08/17 03:00:22;;;;;;;;;14.67;14.67;;;;;;;;4992793;28;45348;-66
2022/08/17 03:02:47;;;;;;;;;20.67;19.00;;;;;;;;4978350;28;45492;-68
2022/08/17 03:05:14;;;;;;;;;17.33;17.00;;;;;;;;4993972;28;46014;-67
2022/08/17 03:07:39;;;;;;;;;17.33;16.33;;;;;;;;4997404;28;45499;-66
2022/08/17 03:10:05;;;;;;;;;19.33;19.33;;;;;;;;4997914;28;45574;-66
2022/08/17 03:12:35;;;;;;;;;18.00;16.67;;;;;;;;4993687;28;45471;-66
2022/08/17 03:15:02;;;;;;;;;19.67;18.67;;;;;;;;4977778;28;45496;-67
2022/08/17 03:17:27;;;;;;;;;17.33;17.33;;;;;;;;4978159;28;45381;-65
2022/08/17 03:19:52;;;;;;;;;17.33;17.33;;;;;;;;4978211;28;45449;-66
2022/08/17 03:22:17;;;;;;;;;17.67;16.33;;;;;;;;4993717;28;45409;-67
2022/08/17 03:24:42;;;;;;;;;19.00;19.00;;;;;;;;4978080;28;45533;-68
2022/08/17 03:27:08;;;;;;;;;20.33;20.33;;;;;;;;4977976;28;45369;-65
2022/08/17 03:29:33;;;;;;;;;18.00;18.00;;;;;;;;4978179;28;45419;-67
2022/08/17 03:31:58;;;;;;;;;19.67;19.67;;;;;;;;4978074;28;45541;-67
2022/08/17 03:34:23;;;;;;;;;20.33;20.00;;;;;;;;4977763;28;47202;-67
2022/08/17 03:36:49;;;;;;;;;16.00;16.00;;;;;;;;4997576;28;45384;-67
2022/08/17 03:39:14;;;;;;;;;15.33;15.33;;;;;;;;4996308;28;45721;-66
2022/08/17 03:41:39;;;;;;;;;17.67;16.33;;;;;;;;4979108;28;45439;-69
2022/08/17 03:44:04;;;;;;;;;19.67;19.67;;;;;;;;4995809;28;46367;-65
2022/08/17 03:57:26;;;;;;;;;19.67;18.33;;;;;;;;4997127;28;45471;-65
2022/08/17 03:59:52;;;;;;;;;17.00;16.33;;;;;;;;4996962;28;45539;-64
2022/08/17 04:02:20;;;;;;;;;21.00;20.00;;;;;;;;4997178;28;45584;-70
2022/08/17 04:04:45;;;;;;;;;21.00;20.00;;;;;;;;4984223;28;46007;-66
2022/08/17 04:07:11;;;;;;;;;18.67;18.00;;;;;;;;4988964;28;45382;-68
2022/08/17 04:09:36;;;;;;;;;18.00;18.00;;;;;;;;4978624;28;45401;-66
2022/08/17 04:12:01;;;;;;;;;18.00;17.67;;;;;;;;4996965;28;45367;-69
2022/08/17 04:14:29;;;;;;;;;20.33;19.33;;;;;;;;4995323;28;46235;-68
2022/08/17 04:16:55;;;;;;;;;21.67;21.67;;;;;;;;4986727;28;45524;-65
2022/08/17 04:19:20;;;;;;;;;21.00;21.00;;;;;;;;4962615;28;45484;-69
2022/08/17 04:21:45;;;;;;;;;21.67;20.33;;;;;;;;4996405;28;45582;-65
2022/08/17 04:24:10;;;;;;;;;18.00;17.33;;;;;;;;4994913;28;47358;-66
2022/08/17 04:26:36;;;;;;;;;19.33;17.67;;;;;;;;4994838;28;45853;-67
2022/08/17 04:29:01;;;;;;;;;20.67;19.00;;;;;;;;4995770;28;45526;-68
2022/08/17 04:31:26;;;;;;;;;20.33;17.33;;;;;;;;4996476;28;45428;-69
2022/08/17 04:33:53;;;;;;;;;21.00;20.33;;;;;;;;4996559;28;45493;-67
2022/08/17 04:36:18;;;;;;;;;19.00;18.00;;;;;;;;4996371;28;45441;-66
2022/08/17 04:38:44;;;;;;;;;22.67;19.67;;;;;;;;4996474;28;45478;-65
2022/08/17 04:43:57;;;;;;;;;19.67;19.00;;;;;;;;4996562;28;45466;-69
2022/08/17 04:46:23;;;;;;;;;20.00;19.00;;;;;;;;4996312;28;45368;-69
2022/08/17 04:48:54;;;;;;;;;21.00;20.00;;;;;;;;4996158;28;45403;-65
2022/08/17 04:51:24;;;;;;;;;19.00;18.00;;;;;;;;4996201;28;45481;-66
2022/08/17 04:53:51;;;;;;;;;21.33;19.00;;;;;;;;4983817;28;45369;-67
2022/08/17 04:56:17;;;;;;;;;21.00;20.33;;;;;;;;4976586;28;45510;-68
2022/08/17 04:58:43;;;;;;;;;23.33;20.33;;;;;;;;4976468;28;45508;-65
2022/08/17 05:01:09;;;;;;;;;17.33;17.00;;;;;;;;4985941;28;45499;-67
2022/08/17 05:03:34;;;;;;;;;21.33;21.33;;;;;;;;4992974;28;46371;-68
2022/08/17 05:05:59;;;;;;;;;20.67;19.33;;;;;;;;4986833;28;45470;-64
2022/08/17 05:08:25;;;;;;;;;19.33;18.67;;;;;;;;4996273;28;45478;-69
2022/08/17 05:10:50;;;;;;;;;25.00;22.33;;;;;;;;4996453;28;45553;-66
2022/08/17 05:13:21;;;;;;;;;24.00;24.00;;;;;;;;4991130;28;45582;-66
2022/08/17 05:15:47;;;;;;;;;22.67;22.67;;;;;;;;4994370;28;45513;-69
2022/08/17 05:18:13;;;;;;;;;20.33;20.33;;;;;;;;4982721;28;45471;-66
2022/08/17 05:20:38;;;;;;;;;22.00;21.00;;;;;;;;4995798;28;45421;-66
2022/08/17 05:23:08;;;;;;;;;22.33;22.33;;;;;;;;4995872;28;46422;-66
2022/08/17 05:25:35;;;;;;;;;20.00;20.00;;;;;;;;4999221;28;45494;-66
2022/08/17 05:28:00;;;;;;;;;21.33;21.33;;;;;;;;4999183;28;45382;-68
2022/08/17 05:30:25;;;;;;;;;20.00;20.00;;;;;;;;4999366;28;45380;-69
2022/08/17 05:32:52;;;;;;;;;22.00;22.00;;;;;;;;4999214;28;45667;-64
2022/08/17 05:35:17;;;;;;;;;23.67;21.67;;;;;;;;4999233;28;45500;-68
2022/08/17 05:37:43;;;;;;;;;21.67;20.67;;;;;;;;4999079;28;45430;-65
2022/08/17 05:40:09;;;;;;;;;23.00;21.33;;;;;;;;4999494;28;45440;-65
2022/08/17 05:42:34;;;;;;;;;24.67;21.33;;;;;;;;4999060;28;46062;-67
2022/08/17 05:44:59;;;;;;;;;20.67;20.67;;;;;;;;4997906;28;45507;-67
2022/08/17 05:47:25;;;;;;;;;21.67;21.00;;;;;;;;4999073;28;45479;-71
2022/08/17 05:49:51;;;;;;;;;24.33;21.33;;;;;;;;4998591;28;45484;-71
2022/08/17 05:52:22;;;;;;;;;24.33;23.67;;;;;;;;4998126;28;45552;-67
2022/08/17 05:54:47;;;;;;;;;22.33;21.33;;;;;;;;4998693;28;45358;-72
2022/08/17 05:57:32;;;;;;;;;20.00;20.00;;;;;;;;4998538;28;45425;-71
2022/08/17 06:00:15;;;;;;;;;21.33;21.00;;;;;;;;4998431;28;45565;-73
2022/08/17 06:02:56;;;;;;;;;19.00;19.00;;;;;;;;4999243;28;46361;-69
2022/08/17 06:05:40;;;;;;;;;23.67;23.33;;;;;;;;4992981;28;45454;-68
2022/08/17 06:08:11;;;;;;;;;24.67;24.67;;;;;;;;4985307;28;45517;-69
2022/08/17 06:10:39;;;;;;;;;28.33;27.00;;;;;;;;4997641;28;45427;-68
2022/08/17 06:13:31;;;;;;;;;29.00;25.67;;;;;;;;4976222;28;46345;-69
2022/08/17 06:15:59;;;;;;;;;28.33;28.33;;;;;;;;4982009;28;45807;-67
2022/08/17 06:18:27;;;;;;;;;28.67;27.33;;;;;;;;4988336;28;45519;-70
2022/08/17 06:20:56;;;;;;;;;26.67;26.33;;;;;;;;4978437;28;45469;-73
2022/08/17 06:23:41;;;;;;;;;28.00;28.00;;;;;;;;4992128;28;45585;-70
2022/08/17 06:26:11;;;;;;;;;35.00;29.33;;;;;;;;4995869;28;45515;-69
2022/08/17 06:28:39;;;;;;;;;33.33;32.00;;;;;;;;4998314;28;45477;-67
2022/08/17 06:31:11;;;;;;;;;39.00;33.00;;;;;;;;4998509;28;45433;-67
2022/08/17 06:33:38;;;;;;;;;35.00;32.33;;;;;;;;4965260;28;47455;-68
2022/08/17 06:36:29;;;;;;;;;27.33;25.33;;;;;;;;4991129;28;45393;-66
2022/08/17 06:39:00;;;;;;;;;25.33;23.67;;;;;;;;4977477;28;45516;-63
2022/08/17 06:41:38;;;;;;;;;27.33;26.00;;;;;;;;4978684;28;45360;-66
2022/08/17 06:44:12;;;;;;;;;22.00;22.00;;;;;;;;4978301;28;45438;-62
2022/08/17 06:46:41;;;;;;;;;27.33;25.33;;;;;;;;4978200;28;45480;-68
2022/08/17 06:49:06;;;;;;;;;23.00;23.00;;;;;;;;4978090;28;45401;-66
2022/08/17 06:51:38;;;;;;;;;26.67;23.67;;;;;;;;4978131;28;45363;-67
2022/08/17 06:54:06;;;;;;;;;25.67;23.67;;;;;;;;4978380;28;45516;-63
2022/08/17 06:56:34;;;;;;;;;24.33;24.33;;;;;;;;4978034;28;45507;-65
2022/08/17 06:59:00;;;;;;;;;20.33;19.00;;;;;;;;4978192;28;45473;-64
2022/08/17 07:01:30;;;;;;;;;22.00;21.00;;;;;;;;4978491;28;45355;-66
2022/08/17 07:04:03;;;;;;;;;21.33;21.33;;;;;;;;4977938;28;45511;-66
2022/08/17 07:06:33;;;;;;;;;26.00;24.33;;;;;;;;4977690;28;45516;-64
2022/08/17 07:09:01;;;;;;;;;25.00;25.00;;;;;;;;4978017;28;45392;-61
2022/08/17 07:11:30;;;;;;;;;22.33;21.33;;;;;;;;4977874;28;45618;-64
2022/08/17 07:13:58;;;;;;;;;25.33;23.67;;;;;;;;4977483;28;46223;-64
2022/08/17 07:16:37;;;;;;;;;23.00;22.00;;;;;;;;4977450;28;45378;-66
2022/08/17 07:19:03;;;;;;;;;26.00;24.33;;;;;;;;4977914;28;45516;-64
2022/08/17 07:21:37;;;;;;;;;27.67;24.67;;;;;;;;4977873;28;45412;-66
2022/08/17 07:24:02;;;;;;;;;26.00;24.67;;;;;;;;4977546;28;46117;-66
2022/08/17 07:26:28;;;;;;;;;21.33;20.33;;;;;;;;4977340;28;45595;-67
2022/08/17 07:28:55;;;;;;;;;28.33;24.33;;;;;;;;4960382;28;45507;-65
2022/08/17 07:31:20;;;;;;;;;39.67;34.67;;;;;;;;4978015;28;45479;-62
2022/08/17 07:34:01;;;;;;;;;25.67;21.67;;;;;;;;4977626;28;45441;-63
2022/08/17 07:36:32;;;;;;;;;24.33;23.33;;;;;;;;4977529;28;45474;-66
2022/08/17 07:38:57;;;;;;;;;26.00;23.00;;;;;;;;4992346;28;45519;-65
2022/08/17 07:41:23;;;;;;;;;23.00;23.00;;;;;;;;4996206;28;45362;-66
2022/08/17 07:43:51;;;;;;;;;23.33;22.00;;;;;;;;4996865;28;46039;-64
2022/08/17 07:49:11;;;;;;;;;24.00;22.33;;;;;;;;4996926;28;45503;-68
2022/08/17 07:51:42;;;;;;;;;22.67;22.33;;;;;;;;4979479;28;45452;-65
2022/08/17 07:54:13;;;;;;;;;21.67;21.33;;;;;;;;4996994;28;45392;-66
2022/08/17 07:56:39;;;;;;;;;23.33;23.00;;;;;;;;4996897;28;45420;-64
2022/08/17 07:59:05;;;;;;;;;20.67;20.67;;;;;;;;4996976;28;46026;-66
2022/08/17 08:01:31;;;;;;;;;22.67;18.67;;;;;;;;4997587;28;45519;-62
2022/08/17 08:03:57;;;;;;;;;25.00;23.67;;;;;;;;4996048;28;46018;-67
2022/08/17 08:06:25;;;;;;;;;22.00;22.00;;;;;;;;4996683;28;45368;-69
2022/08/17 08:08:52;;;;;;;;;20.67;19.33;;;;;;;;4996975;28;46057;-67
2022/08/17 08:11:29;;;;;;;;;21.67;21.67;;;;;;;;4996535;28;45427;-64
2022/08/17 08:13:55;;;;;;;;;26.33;23.00;;;;;;;;4996417;28;47204;-64
2022/08/17 08:16:26;;;;;;;;;20.00;20.00;;;;;;;;4996517;28;45521;-64
2022/08/17 08:18:53;;;;;;;;;19.33;19.33;;;;;;;;4996570;28;45490;-64
2022/08/17 08:21:30;;;;;;;;;27.00;23.33;;;;;;;;4996806;28;45595;-70
2022/08/17 08:24:19;;;;;;;;;21.67;20.33;;;;;;;;4996587;28;45463;-68
2022/08/17 08:27:06;;;;;;;;;21.33;20.33;;;;;;;;4996476;28;45345;-64
2022/08/17 08:29:40;;;;;;;;;20.00;20.00;;;;;;;;4979078;28;45481;-65
2022/08/17 08:32:10;;;;;;;;;21.67;21.67;;;;;;;;4996540;28;45402;-68
2022/08/17 08:34:47;;;;;;;;;21.33;21.00;;;;;;;;4996178;28;46143;-65
2022/08/17 08:37:13;;;;;;;;;20.67;20.67;;;;;;;;4996384;28;45415;-63
2022/08/17 08:40:16;;;;;;;;;21.67;20.67;;;;;;;;4996265;28;45385;-67
2022/08/17 08:42:42;;;;;;;;;21.33;20.67;;;;;;;;4955157;28;45442;-67
2022/08/17 08:45:19;;;;;;;;;21.00;20.67;;;;;;;;4954474;28;45604;-63
2022/08/17 08:47:47;;;;;;;;;24.33;24.33;;;;;;;;4976922;28;45372;-68
2022/08/17 08:50:27;;;;;;;;;20.67;19.00;;;;;;;;4995908;28;45429;-64
2022/08/17 08:53:07;;;;;;;;;22.00;21.00;;;;;;;;4996219;28;45631;-65
2022/08/17 08:55:44;;;;;;;;;28.00;26.33;;;;;;;;4995809;28;46001;-65
2022/08/17 08:58:14;;;;;;;;;21.00;21.00;;;;;;;;4993946;28;45553;-67
2022/08/17 09:00:44;;;;;;;;;19.67;19.67;;;;;;;;4995995;28;45388;-62
2022/08/17 09:03:16;;;;;;;;;26.00;24.00;;;;;;;;4996480;28;45472;-65
2022/08/17 09:05:52;;;;;;;;;23.00;22.67;;;;;;;;4995708;28;45376;-67
2022/08/17 09:08:17;;;;;;;;;23.67;21.00;;;;;;;;4995856;28;45481;-62
2022/08/17 09:11:03;;;;;;;;;37.00;33.00;;;;;;;;4996295;28;45447;-65
2022/08/17 09:13:41;;;;;;;;;32.33;30.00;;;;;;;;4996099;28;45384;-67
2022/08/17 09:16:28;;;;;;;;;29.00;28.00;;;;;;;;4995802;28;45981;-65
2022/08/17 09:18:56;;;;;;;;;23.00;22.33;;;;;;;;4977854;28;45401;-69
2022/08/17 09:21:31;;;;;;;;;21.33;21.33;;;;;;;;4996064;28;45444;-66
2022/08/17 09:24:19;;;;;;;;;22.67;22.67;;;;;;;;4995908;28;45405;-62
2022/08/17 09:26:47;;;;;;;;;22.67;22.67;;;;;;;;4987735;28;46030;-70
2022/08/17 09:29:13;;;;;;;;;26.67;24.33;;;;;;;;4995935;28;45464;-69
2022/08/17 09:32:00;;;;;;;;;21.67;21.67;;;;;;;;4995863;28;45413;-66
2022/08/17 09:34:45;;;;;;;;;31.67;28.33;;;;;;;;4978156;28;45591;-68
2022/08/17 09:37:17;;;;;;;;;26.33;23.33;;;;;;;;4984761;28;45499;-67
2022/08/17 09:39:49;;;;;;;;;23.00;22.33;;;;;;;;4995643;28;45396;-64
2022/08/17 09:42:25;;;;;;;;;24.33;24.33;;;;;;;;4995408;28;45412;-69
2022/08/17 09:44:57;;;;;;;;;22.33;22.33;;;;;;;;4995282;28;45494;-64
2022/08/17 09:47:31;;;;;;;;;22.67;22.67;;;;;;;;4995105;28;45490;-64
2022/08/17 09:50:05;;;;;;;;;28.00;24.67;;;;;;;;4994757;28;45536;-67
2022/08/17 09:52:30;;;;;;;;;24.33;23.67;;;;;;;;4995097;28;45430;-64
2022/08/17 09:54:57;;;;;;;;;25.67;23.67;;;;;;;;4994866;28;45336;-67
2022/08/17 09:57:22;;;;;;;;;22.67;21.33;;;;;;;;4994775;28;46238;-65
2022/08/17 10:00:10;;;;;;;;;23.33;22.33;;;;;;;;4994639;28;45536;-67
2022/08/17 10:02:39;;;;;;;;;24.67;24.33;;;;;;;;4995489;28;45352;-63
2022/08/17 10:05:16;;;;;;;;;27.33;27.33;;;;;;;;4977194;28;45442;-69
2022/08/17 10:07:51;;;;;;;;;26.67;26.67;;;;;;;;4972644;28;47209;-64
2022/08/17 10:10:23;;;;;;;;;29.67;29.33;;;;;;;;4996430;28;45462;-64
2022/08/17 10:12:48;;;;;;;;;30.33;27.33;;;;;;;;4997483;28;45388;-66
2022/08/17 10:15:26;;;;;;;;;28.75;28.25;;;;;;;;4997935;28;45519;-66
2022/08/17 10:18:16;;;;;;;;;30.00;30.00;;;;;;;;4997319;28;45508;-66
2022/08/17 10:20:51;;;;;;;;;32.00;30.33;;;;;;;;4998274;28;45455;-64
2022/08/17 10:26:14;;;;;;;;;26.33;24.00;;;;;;;;4998173;28;45417;-64
2022/08/17 10:28:52;;;;;;;;;26.33;26.00;;;;;;;;4997836;28;46124;-67
2022/08/17 10:31:29;;;;;;;;;29.67;27.67;;;;;;;;4998358;28;45553;-65
2022/08/17 10:33:54;;;;;;;;;28.33;27.33;;;;;;;;4998333;28;45435;-65
2022/08/17 10:36:25;;;;;;;;;12.00;10.67;;;;;;;;4998006;28;45662;-67
2022/08/17 10:39:10;;;;;;;;;30.33;27.33;;;;;;;;4998094;28;46096;-64
2022/08/17 10:41:39;;;;;;;;;29.67;29.00;;;;;;;;4986833;28;45519;-63
2022/08/17 10:44:10;;;;;;;;;35.33;32.33;;;;;;;;4997925;28;45344;-66
2022/08/17 10:46:38;;;;;;;;;29.33;28.67;;;;;;;;4997875;28;45372;-65
2022/08/17 10:49:16;;;;;;;;;29.33;29.00;;;;;;;;4997552;28;46219;-65
2022/08/17 10:51:42;;;;;;;;;30.00;27.00;;;;;;;;4994303;28;45574;-68
2022/08/17 10:54:25;;;;;;;;;29.33;27.67;;;;;;;;4995809;28;45527;-67
2022/08/17 10:56:51;;;;;;;;;32.33;31.00;;;;;;;;4994498;28;45476;-67
2022/08/17 10:59:35;;;;;;;;;46.33;36.33;;;;;;;;4994524;28;46145;-67
2022/08/17 11:02:03;;;;;;;;;28.33;27.00;;;;;;;;4997434;28;45549;-67
2022/08/17 11:04:35;;;;;;;;;32.33;28.67;;;;;;;;4996225;28;45705;-67
2022/08/17 11:07:04;;;;;;;;;31.33;30.67;;;;;;;;4980018;28;45538;-66
2022/08/17 11:09:44;;;;;;;;;28.67;27.67;;;;;;;;4979573;28;46182;-67
2022/08/17 11:12:19;;;;;;;;;31.67;30.00;;;;;;;;4979707;28;46104;-68
2022/08/17 11:15:18;;;;;;;;;39.33;33.33;;;;;;;;4995829;28;45474;-69
2022/08/17 11:18:05;;;;;;;;;37.00;32.67;;;;;;;;4979467;28;45651;-65
2022/08/17 11:20:31;;;;;;;;;39.33;34.00;;;;;;;;4997157;28;46116;-66
2022/08/17 11:22:56;;;;;;;;;35.33;33.00;;;;;;;;4977662;28;45441;-66
2022/08/17 11:25:39;;;;;;;;;36.00;33.33;;;;;;;;4978862;28;45369;-71
2022/08/17 11:28:24;;;;;;;;;31.67;30.67;;;;;;;;4991991;28;45582;-69
2022/08/17 11:30:55;;;;;;;;;44.00;37.33;;;;;;;;4995975;28;45426;-70
2022/08/17 11:33:33;;;;;;;;;45.00;38.50;;;;;;;;4982964;28;45487;-64
2022/08/17 11:36:17;;;;;;;;;35.00;31.67;;;;;;;;4992452;28;45439;-69
2022/08/17 11:39:00;;;;;;;;;35.67;32.67;;;;;;;;4995791;28;45404;-67
2022/08/17 11:41:28;;;;;;;;;31.67;30.00;;;;;;;;4996467;28;46048;-67
2022/08/17 11:43:59;;;;;;;;;33.00;30.33;;;;;;;;4997013;28;45511;-69
2022/08/17 11:52:03;;;;;;;;;26.33;26.33;;;;;;;;4996825;28;45515;-69
2022/08/17 11:54:28;;;;;;;;;36.67;32.67;;;;;;;;4996017;28;45446;-66
2022/08/17 11:56:55;;;;;;;;;32.33;29.67;;;;;;;;4977681;28;45487;-68
2022/08/17 11:59:37;;;;;;;;;37.00;33.00;;;;;;;;4959455;28;45566;-68
2022/08/17 12:02:25;;;;;;;;;33.00;31.00;;;;;;;;4977563;28;45532;-65
2022/08/17 12:05:08;;;;;;;;;31.67;30.00;;;;;;;;4976929;28;45588;-68
2022/08/17 12:07:40;;;;;;;;;36.67;32.33;;;;;;;;4977181;28;45413;-67
2022/08/17 12:10:07;;;;;;;;;36.33;33.00;;;;;;;;4977115;28;45433;-66
2022/08/17 12:12:34;;;;;;;;;31.67;30.67;;;;;;;;4976918;28;46125;-69
2022/08/17 12:15:00;;;;;;;;;33.00;32.00;;;;;;;;4959490;28;45510;-64
2022/08/17 12:17:28;;;;;;;;;34.00;31.67;;;;;;;;4977025;28;45461;-70
2022/08/17 12:19:53;;;;;;;;;38.67;33.33;;;;;;;;4976828;28;45374;-65
2022/08/17 12:22:31;;;;;;;;;34.67;31.67;;;;;;;;4975837;28;45376;-68
2022/08/17 12:24:58;;;;;;;;;30.67;30.00;;;;;;;;4976968;28;45513;-66
2022/08/17 12:27:25;;;;;;;;;32.33;29.33;;;;;;;;4959352;28;45416;-66
2022/08/17 12:29:52;;;;;;;;;27.33;27.33;;;;;;;;4976807;28;45478;-65
2022/08/17 12:32:18;;;;;;;;;36.00;32.67;;;;;;;;4976015;28;46142;-66
2022/08/17 12:34:45;;;;;;;;;36.00;30.67;;;;;;;;4975783;28;45453;-69
2022/08/17 12:37:15;;;;;;;;;36.33;33.33;;;;;;;;4983784;28;45759;-64
2022/08/17 12:39:55;;;;;;;;;37.33;31.67;;;;;;;;4996174;28;45530;-69
2022/08/17 12:42:21;;;;;;;;;38.00;33.00;;;;;;;;4995593;28;45424;-67
2022/08/17 12:44:46;;;;;;;;;30.67;30.00;;;;;;;;4996497;28;45467;-65
2022/08/17 12:47:19;;;;;;;;;33.67;30.00;;;;;;;;4996394;28;45445;-70
2022/08/17 12:49:48;;;;;;;;;32.67;29.67;;;;;;;;4996125;28;45493;-67
2022/08/17 12:52:15;;;;;;;;;31.33;30.00;;;;;;;;4995811;28;45455;-67
2022/08/17 12:54:43;;;;;;;;;30.33;28.67;;;;;;;;4996116;28;45412;-69
2022/08/17 12:57:11;;;;;;;;;28.67;28.67;;;;;;;;4996250;28;45494;-70
2022/08/17 12:59:39;;;;;;;;;31.67;28.00;;;;;;;;4996053;28;45424;-67
2022/08/17 13:02:05;;;;;;;;;24.67;24.67;;;;;;;;4996669;28;46402;-66
2022/08/17 13:04:30;;;;;;;;;27.67;27.00;;;;;;;;4996054;28;45521;-66
2022/08/17 13:06:56;;;;;;;;;25.00;25.00;;;;;;;;4996056;28;45349;-64
2022/08/17 13:09:26;;;;;;;;;25.67;25.00;;;;;;;;4996009;28;45435;-68
2022/08/17 13:11:54;;;;;;;;;28.00;28.00;;;;;;;;4995918;28;45397;-69
2022/08/17 13:14:19;;;;;;;;;24.33;21.33;;;;;;;;4995651;28;45367;-68
2022/08/17 13:16:54;;;;;;;;;24.33;23.00;;;;;;;;4996174;28;45389;-65
2022/08/17 13:19:20;;;;;;;;;25.67;23.33;;;;;;;;4978168;28;45607;-66
2022/08/17 13:22:08;;;;;;;;;26.67;26.00;;;;;;;;4995537;28;46331;-65
2022/08/17 13:24:33;;;;;;;;;24.67;23.67;;;;;;;;4978061;28;45397;-68
2022/08/17 13:27:02;;;;;;;;;27.33;27.33;;;;;;;;4995890;28;45617;-70
2022/08/17 13:29:31;;;;;;;;;25.00;25.00;;;;;;;;4995722;28;45392;-63
2022/08/17 13:31:57;;;;;;;;;28.00;24.00;;;;;;;;4995587;28;45512;-69
2022/08/17 13:34:22;;;;;;;;;25.50;25.00;;;;;;;;4995794;28;45495;-68
2022/08/17 13:36:48;;;;;;;;;30.00;29.67;;;;;;;;4995752;28;45341;-68
2022/08/17 13:39:21;;;;;;;;;24.25;20.50;;;;;;;;4995672;28;45577;-69
2022/08/17 13:41:47;;;;;;;;;22.25;22.25;;;;;;;;4995436;28;45439;-67
2022/08/17 13:44:30;;;;;;;;;23.25;21.00;;;;;;;;4995435;28;45486;-68
2022/08/17 13:46:56;;;;;;;;;20.50;19.25;;;;;;;;4998956;28;45400;-69
2022/08/17 13:49:21;;;;;;;;;23.00;21.50;;;;;;;;4998716;28;45533;-67
2022/08/17 13:51:48;;;;;;;;;19.25;19.25;;;;;;;;4998573;28;46300;-65
2022/08/17 13:54:33;;;;;;;;;19.75;17.75;;;;;;;;4998837;28;45412;-66
2022/08/17 13:57:02;;;;;;;;;21.75;20.75;;;;;;;;4998091;28;45370;-68
2022/08/17 13:59:30;;;;;;;;;16.75;15.75;;;;;;;;4998409;28;45429;-64
2022/08/17 14:01:55;;;;;;;;;20.50;18.25;;;;;;;;4998637;28;45412;-66
2022/08/17 14:04:26;;;;;;;;;19.00;19.00;;;;;;;;4999375;28;45373;-67
2022/08/17 14:07:00;;;;;;;;;20.25;18.25;;;;;;;;4998979;28;45378;-67
2022/08/17 14:09:28;;;;;;;;;20.50;19.50;;;;;;;;4998666;28;45436;-71
2022/08/17 14:11:55;;;;;;;;;19.00;18.75;;;;;;;;4998724;28;46166;-67
2022/08/17 14:14:21;;;;;;;;;19.75;19.75;;;;;;;;4998352;28;45472;-68
2022/08/17 14:16:47;;;;;;;;;19.25;18.00;;;;;;;;4998523;28;45461;-67
2022/08/17 14:19:12;;;;;;;;;20.75;19.50;;;;;;;;4980874;28;45404;-66
2022/08/17 14:21:39;;;;;;;;;17.25;17.25;;;;;;;;4998296;28;45344;-69
2022/08/17 14:24:06;;;;;;;;;17.50;17.50;;;;;;;;4998456;28;45428;-68
2022/08/17 14:26:32;;;;;;;;;13.00;10.75;;;;;;;;4998471;28;45356;-65
2022/08/17 14:28:57;;;;;;;;;19.25;19.25;;;;;;;;4998524;28;45346;-63
2022/08/17 14:31:22;;;;;;;;;17.50;17.00;;;;;;;;4998418;28;45352;-69
2022/08/17 14:33:47;;;;;;;;;18.50;18.50;;;;;;;;4980716;28;45459;-66
2022/08/17 14:36:13;;;;;;;;;15.25;15.00;;;;;;;;4998316;28;45531;-68
2022/08/17 14:38:38;;;;;;;;;19.75;18.00;;;;;;;;4998387;28;45574;-65
2022/08/17 14:41:03;;;;;;;;;21.75;21.00;;;;;;;;4997835;28;45353;-68
2022/08/17 14:43:30;;;;;;;;;18.00;18.00;;;;;;;;4998227;28;45472;-66
2022/08/17 14:45:57;;;;;;;;;16.50;16.50;;;;;;;;4998260;28;45488;-67
2022/08/17 14:48:22;;;;;;;;;17.50;17.50;;;;;;;;4997856;28;45486;-66
2022/08/17 14:50:47;;;;;;;;;17.75;17.00;;;;;;;;4997797;28;46241;-65
2022/08/17 14:53:14;;;;;;;;;17.25;17.00;;;;;;;;4997962;28;45431;-64
2022/08/17 14:55:40;;;;;;;;;15.50;14.75;;;;;;;;4997535;28;45378;-65